createdAt,value
2022-10-05T00:03:54.059Z,10.07
2022-10-05T00:08:58.182Z,10.05
2022-10-05T00:14:02.354Z,10.00
2022-10-05T00:19:06.553Z,10.00
2022-10-05T00:24:10.678Z,10.01
2022-10-05T00:29:14.837Z,10.04
2022-10-05T00:34:19.022Z,10.14
2022-10-05T00:39:23.192Z,10.22
2022-10-05T00:44:27.314Z,10.21
2022-10-05T00:49:31.478Z,10.25
2022-10-05T00:54:35.681Z,10.23
2022-10-05T00:59:39.794Z,10.27
2022-10-05T01:04:43.952Z,10.28
2022-10-05T01:09:48.143Z,10.27
2022-10-05T01:14:52.281Z,10.25
2022-10-05T01:19:56.445Z,10.31
2022-10-05T01:24:58.740Z,10.35
2022-10-05T01:30:02.904Z,10.40
2022-10-05T01:35:05.168Z,10.34
2022-10-05T01:40:09.302Z,10.37
2022-10-05T01:45:13.477Z,10.37
2022-10-05T01:50:17.637Z,10.35
2022-10-05T01:55:21.820Z,10.36
2022-10-05T02:00:25.929Z,10.45
2022-10-05T02:05:30.121Z,10.45
2022-10-05T02:10:34.308Z,10.50
2022-10-05T02:15:38.481Z,10.68
2022-10-05T02:20:42.573Z,10.85
2022-10-05T02:25:46.781Z,10.94
2022-10-05T02:30:50.935Z,11.00
2022-10-05T02:35:55.082Z,11.00
2022-10-05T02:40:59.232Z,11.09
2022-10-05T02:46:03.488Z,11.14
2022-10-05T02:51:07.551Z,11.23
2022-10-05T02:56:11.719Z,11.28
2022-10-05T03:01:15.891Z,11.32
2022-10-05T03:06:20.020Z,11.25
2022-10-05T03:11:24.202Z,11.20
2022-10-05T03:16:28.471Z,11.11
2022-10-05T03:21:30.624Z,11.22
2022-10-05T03:26:34.814Z,11.29
2022-10-05T03:31:37.129Z,11.39
2022-10-05T03:36:41.281Z,11.34
2022-10-05T03:41:45.386Z,11.40
2022-10-05T03:46:49.979Z,11.72
2022-10-05T03:51:53.691Z,11.88
2022-10-05T03:56:57.907Z,11.97
2022-10-05T04:02:02.042Z,12.01
2022-10-05T04:07:06.212Z,12.03
2022-10-05T04:12:10.341Z,12.04
2022-10-05T04:17:14.550Z,12.02
2022-10-05T04:22:18.667Z,12.03
2022-10-05T04:27:22.869Z,12.07
2022-10-05T04:32:27.012Z,11.95
2022-10-05T04:37:31.167Z,11.97
2022-10-05T04:42:35.343Z,11.94
2022-10-05T04:47:39.483Z,11.95
2022-10-05T04:52:43.626Z,11.99
2022-10-05T04:57:47.840Z,11.99
2022-10-05T05:02:50.089Z,11.99
2022-10-05T05:07:54.221Z,12.12
2022-10-05T05:12:58.388Z,12.17
2022-10-05T05:18:00.686Z,12.25
2022-10-05T05:23:04.810Z,12.25
2022-10-05T05:28:09.024Z,12.32
2022-10-05T05:33:13.161Z,12.35
2022-10-05T05:38:17.344Z,12.39
2022-10-05T05:43:21.469Z,12.48
2022-10-05T05:48:25.647Z,12.52
2022-10-05T05:53:29.781Z,12.57
2022-10-05T05:58:34.049Z,12.60
2022-10-05T06:03:38.109Z,12.69
2022-10-05T06:08:42.260Z,12.80
2022-10-05T06:13:46.497Z,12.82
2022-10-05T06:18:50.611Z,12.86
2022-10-05T06:23:54.744Z,13.02
2022-10-05T06:28:58.917Z,13.08
2022-10-05T06:34:03.065Z,13.19
2022-10-05T06:39:07.267Z,13.30
2022-10-05T06:44:11.432Z,13.39
2022-10-05T06:49:15.596Z,13.55
2022-10-05T06:54:19.724Z,13.68
2022-10-05T06:59:23.872Z,13.76
2022-10-05T07:04:26.121Z,13.84
2022-10-05T07:09:30.315Z,13.96
2022-10-05T07:14:32.584Z,14.06
2022-10-05T07:19:36.721Z,14.12
2022-10-05T07:24:40.912Z,14.19
2022-10-05T07:29:45.050Z,14.25
2022-10-05T07:34:49.185Z,14.31
2022-10-05T07:40:00.528Z,14.31
2022-10-05T07:44:57.524Z,14.40
2022-10-05T07:50:01.692Z,14.46
2022-10-05T07:55:05.872Z,14.53
2022-10-05T08:00:10.047Z,14.57
2022-10-05T08:05:14.158Z,14.61
2022-10-05T08:10:18.317Z,14.63
2022-10-05T08:15:22.492Z,14.70
2022-10-05T08:20:26.675Z,14.80
2022-10-05T08:25:30.812Z,14.81
2022-10-05T08:30:34.969Z,14.93
2022-10-05T08:35:39.138Z,15.12
2022-10-05T08:45:47.535Z,15.26
2022-10-05T08:50:51.588Z,15.32
2022-10-05T08:55:55.796Z,15.50
2022-10-05T09:01:00.011Z,15.60
2022-10-05T09:06:02.229Z,15.70
2022-10-05T09:11:06.368Z,15.80
2022-10-05T09:16:10.598Z,15.89
2022-10-05T09:21:14.665Z,15.95
2022-10-05T09:26:18.882Z,16.08
2022-10-05T09:31:23.040Z,16.11
2022-10-05T09:36:27.137Z,16.26
2022-10-05T09:41:31.339Z,16.34
2022-10-05T09:46:35.498Z,16.34
2022-10-05T09:51:39.648Z,16.37
2022-10-05T09:56:44.039Z,16.43
2022-10-05T10:01:48.381Z,16.47
2022-10-05T10:06:52.116Z,16.56
2022-10-05T10:11:56.281Z,16.55
2022-10-05T10:17:00.467Z,16.57
2022-10-05T10:22:04.591Z,16.70
2022-10-05T10:27:08.793Z,16.87
2022-10-05T10:32:12.914Z,16.92
2022-10-05T10:37:17.139Z,16.84
2022-10-05T10:42:26.013Z,16.95
2022-10-05T10:47:25.391Z,16.99
2022-10-05T10:52:29.557Z,17.05
2022-10-05T10:57:31.820Z,17.06
2022-10-05T11:02:36.102Z,17.26
2022-10-05T11:07:38.289Z,17.23
2022-10-05T11:12:42.444Z,17.22
2022-10-05T11:17:44.684Z,17.26
2022-10-05T11:22:48.841Z,17.53
2022-10-05T11:27:53.218Z,17.74
2022-10-05T11:32:57.159Z,17.82
2022-10-05T11:38:01.330Z,17.90
2022-10-05T11:43:05.456Z,17.97
2022-10-05T11:48:09.642Z,18.11
2022-10-05T11:58:17.927Z,18.15
2022-10-05T12:03:22.266Z,18.39
2022-10-05T12:08:26.260Z,18.50
2022-10-05T12:13:30.416Z,18.67
2022-10-05T12:18:34.573Z,18.83
2022-10-05T12:23:38.773Z,18.88
2022-10-05T12:28:42.939Z,19.04
2022-10-05T12:33:47.090Z,19.01
2022-10-05T12:38:51.237Z,19.09
2022-10-05T12:43:55.403Z,19.25
2022-10-05T12:48:59.539Z,19.49
2022-10-05T12:54:03.690Z,19.67
2022-10-05T12:59:07.874Z,19.89
2022-10-05T13:04:12.032Z,20.03
2022-10-05T13:09:14.327Z,20.22
2022-10-05T13:14:18.454Z,20.14
2022-10-05T13:19:20.738Z,20.24
2022-10-05T13:24:24.849Z,20.58
2022-10-05T13:29:29.045Z,20.65
2022-10-05T13:34:33.201Z,20.67
2022-10-05T13:39:37.333Z,20.80
2022-10-05T13:44:41.538Z,21.03
2022-10-05T13:54:49.852Z,20.71
2022-10-05T13:59:53.996Z,20.89
2022-10-05T14:04:58.163Z,20.74
2022-10-05T14:10:02.350Z,20.56
2022-10-05T14:15:06.505Z,20.46
2022-10-05T14:20:10.625Z,20.44
2022-10-05T14:25:14.794Z,20.52
2022-10-05T14:30:18.990Z,20.52
2022-10-05T14:35:23.089Z,20.60
2022-10-05T14:40:27.396Z,20.61
2022-10-05T14:45:31.446Z,20.56
2022-10-05T14:50:35.577Z,20.53
2022-10-05T14:55:39.722Z,20.35
2022-10-05T15:00:48.181Z,20.23
2022-10-05T15:05:46.167Z,20.12
2022-10-05T15:10:50.340Z,19.86
2022-10-05T15:15:52.631Z,19.76
2022-10-05T15:20:56.746Z,19.68
2022-10-05T15:26:00.936Z,19.61
2022-10-05T15:31:05.203Z,19.62
2022-10-05T15:36:09.251Z,19.58
2022-10-05T15:41:13.377Z,19.44
2022-10-05T15:46:17.637Z,19.60
2022-10-05T15:51:21.733Z,19.51
2022-10-05T15:56:25.881Z,19.63
2022-10-05T16:01:30.147Z,19.35
2022-10-05T16:11:38.352Z,18.92
2022-10-05T16:16:42.495Z,18.78
2022-10-05T16:21:46.666Z,18.63
2022-10-05T16:26:50.809Z,18.55
2022-10-05T16:31:54.952Z,18.42
2022-10-05T16:36:59.340Z,18.44
2022-10-05T16:42:03.301Z,18.37
2022-10-05T16:47:07.454Z,18.32
2022-10-05T16:52:11.687Z,18.29
2022-10-05T16:57:21.793Z,18.15
2022-10-05T17:02:19.993Z,17.97
2022-10-05T17:07:22.230Z,17.89
2022-10-05T17:12:26.361Z,17.83
2022-10-05T17:17:30.573Z,17.75
2022-10-05T17:22:34.699Z,17.73
2022-10-05T17:27:38.837Z,17.66
2022-10-05T17:32:42.975Z,17.68
2022-10-05T17:37:47.175Z,17.77
2022-10-05T17:42:51.326Z,17.71
2022-10-05T17:53:02.197Z,17.47
2022-10-05T17:58:03.794Z,17.43
2022-10-05T18:03:08.115Z,17.42
2022-10-05T18:08:12.107Z,17.42
2022-10-05T18:13:16.270Z,17.42
2022-10-05T18:18:20.465Z,17.38
2022-10-05T18:23:24.605Z,17.38
2022-10-05T18:28:29.365Z,17.40
2022-10-05T18:33:32.898Z,17.41
2022-10-05T18:38:37.102Z,17.40
2022-10-05T18:43:41.256Z,17.39
2022-10-05T18:48:45.412Z,17.39
2022-10-05T18:53:49.564Z,17.43
2022-10-05T18:58:56.587Z,17.48
2022-10-05T19:03:55.997Z,17.49
2022-10-05T19:08:58.252Z,17.49
2022-10-05T19:14:02.413Z,17.51
2022-10-05T19:19:06.572Z,17.48
2022-10-05T19:24:10.735Z,17.48
2022-10-05T19:29:14.893Z,17.45
2022-10-05T19:34:19.030Z,17.37
2022-10-05T19:39:23.195Z,17.36
2022-10-05T19:44:27.409Z,17.39
2022-10-05T19:49:31.533Z,17.47
2022-10-05T19:54:35.707Z,17.50
2022-10-05T19:59:39.855Z,17.58
2022-10-05T20:04:44.077Z,17.57
2022-10-05T20:09:48.170Z,17.59
2022-10-05T20:14:56.067Z,17.67
2022-10-05T20:19:56.489Z,17.67
2022-10-05T20:25:00.645Z,17.64
2022-10-05T20:30:04.814Z,17.69
2022-10-05T20:35:08.980Z,17.75
2022-10-05T20:40:13.110Z,17.72
2022-10-05T20:45:17.306Z,17.78
2022-10-05T20:50:21.470Z,17.83
2022-10-05T20:55:23.703Z,17.82
2022-10-05T21:00:30.836Z,17.88
2022-10-05T21:05:30.339Z,17.90
2022-10-05T21:10:34.323Z,17.92
2022-10-05T21:15:36.554Z,17.93
2022-10-05T21:20:40.726Z,17.95
2022-10-05T21:25:44.890Z,17.89
2022-10-05T21:30:49.040Z,17.90
2022-10-05T21:35:53.207Z,17.95
2022-10-05T21:40:57.353Z,17.95
2022-10-05T21:46:01.692Z,17.91
2022-10-05T21:51:05.670Z,17.84
2022-10-05T21:56:09.829Z,17.77
2022-10-05T22:01:12.175Z,17.72
2022-10-05T22:06:16.286Z,17.70
2022-10-05T22:11:20.433Z,17.66
2022-10-05T22:16:24.645Z,17.61
2022-10-05T22:21:28.726Z,17.31
2022-10-05T22:26:32.900Z,16.97
2022-10-05T22:31:37.201Z,16.72
2022-10-05T22:36:41.254Z,16.57
2022-10-05T22:41:45.397Z,16.46
2022-10-05T22:46:49.562Z,16.25
2022-10-05T22:51:53.674Z,16.18
2022-10-05T22:56:57.882Z,16.05
2022-10-05T23:02:00.256Z,15.96
2022-10-05T23:07:04.290Z,15.82
2022-10-05T23:12:06.579Z,15.72
2022-10-05T23:17:10.732Z,15.65
2022-10-05T23:22:14.869Z,15.61
2022-10-05T23:27:19.045Z,15.53
2022-10-05T23:32:23.168Z,14.74
2022-10-05T23:37:27.353Z,14.35
2022-10-05T23:42:31.529Z,14.01
2022-10-05T23:47:35.697Z,13.75
2022-10-05T23:52:39.858Z,13.57
2022-10-05T23:57:43.985Z,13.33
